sensor_id;sensor_type;location;lat;lon;timestamp;temperature;humidity
16267;DHT22;8241;48.786;9.250;2022-09-20T00:00:09;11.30;99.90
16267;DHT22;8241;48.786;9.250;2022-09-20T00:02:38;11.30;99.90
16267;DHT22;8241;48.786;9.250;2022-09-20T00:05:05;11.30;99.90
16267;DHT22;8241;48.786;9.250;2022-09-20T00:07:33;11.20;99.90
16267;DHT22;8241;48.786;9.250;2022-09-20T00:10:01;11.20;99.90
16267;DHT22;8241;48.786;9.250;2022-09-20T00:12:30;11.20;99.90
16267;DHT22;8241;48.786;9.250;2022-09-20T00:14:57;11.40;99.90
16267;DHT22;8241;48.786;9.250;2022-09-20T00:17:24;11.50;99.90
16267;DHT22;8241;48.786;9.250;2022-09-20T00:19:51;11.50;99.90
16267;DHT22;8241;48.786;9.250;2022-09-20T00:22:17;11.30;99.90
16267;DHT22;8241;48.786;9.250;2022-09-20T00:24:44;11.20;99.90
16267;DHT22;8241;48.786;9.250;2022-09-20T00:27:13;11.20;99.90
16267;DHT22;8241;48.786;9.250;2022-09-20T00:29:40;11.30;99.90
16267;DHT22;8241;48.786;9.250;2022-09-20T00:32:07;11.30;99.90
16267;DHT22;8241;48.786;9.250;2022-09-20T00:34:33;11.20;99.90
16267;DHT22;8241;48.786;9.250;2022-09-20T00:37:29;11.30;99.90
16267;DHT22;8241;48.786;9.250;2022-09-20T00:39:56;11.20;99.90
16267;DHT22;8241;48.786;9.250;2022-09-20T00:42:27;11.00;99.90
16267;DHT22;8241;48.786;9.250;2022-09-20T00:44:56;11.10;99.90
16267;DHT22;8241;48.786;9.250;2022-09-20T00:47:30;11.00;99.90
16267;DHT22;8241;48.786;9.250;2022-09-20T00:50:05;11.30;99.90
16267;DHT22;8241;48.786;9.250;2022-09-20T00:52:33;11.30;99.90
16267;DHT22;8241;48.786;9.250;2022-09-20T00:55:02;11.20;99.90
16267;DHT22;8241;48.786;9.250;2022-09-20T00:57:34;11.20;99.90
16267;DHT22;8241;48.786;9.250;2022-09-20T01:00:06;11.20;99.90
16267;DHT22;8241;48.786;9.250;2022-09-20T01:02:36;11.20;99.90
16267;DHT22;8241;48.786;9.250;2022-09-20T01:05:06;11.30;99.90
16267;DHT22;8241;48.786;9.250;2022-09-20T01:07:34;11.30;99.90
16267;DHT22;8241;48.786;9.250;2022-09-20T01:10:01;11.20;99.90
16267;DHT22;8241;48.786;9.250;2022-09-20T01:12:31;11.10;99.90
16267;DHT22;8241;48.786;9.250;2022-09-20T01:15:29;11.10;99.90
16267;DHT22;8241;48.786;9.250;2022-09-20T01:17:57;11.10;99.90
16267;DHT22;8241;48.786;9.250;2022-09-20T01:20:38;11.10;99.90
16267;DHT22;8241;48.786;9.250;2022-09-20T01:23:15;11.10;99.90
16267;DHT22;8241;48.786;9.250;2022-09-20T01:26:12;11.00;99.90
16267;DHT22;8241;48.786;9.250;2022-09-20T01:28:47;11.00;99.90
16267;DHT22;8241;48.786;9.250;2022-09-20T01:31:21;11.10;99.90
16267;DHT22;8241;48.786;9.250;2022-09-20T01:33:52;11.20;99.90
16267;DHT22;8241;48.786;9.250;2022-09-20T01:36:24;11.20;99.90
16267;DHT22;8241;48.786;9.250;2022-09-20T01:38:59;11.30;99.90
16267;DHT22;8241;48.786;9.250;2022-09-20T01:41:46;11.30;99.90
16267;DHT22;8241;48.786;9.250;2022-09-20T01:44:22;11.20;99.90
16267;DHT22;8241;48.786;9.250;2022-09-20T01:47:04;11.30;99.90
16267;DHT22;8241;48.786;9.250;2022-09-20T01:49:41;11.20;99.90
16267;DHT22;8241;48.786;9.250;2022-09-20T01:56:12;11.10;99.90
16267;DHT22;8241;48.786;9.250;2022-09-20T01:59:11;11.10;99.90
16267;DHT22;8241;48.786;9.250;2022-09-20T02:11:12;11.20;99.90
16267;DHT22;8241;48.786;9.250;2022-09-20T02:13:50;11.10;99.90
16267;DHT22;8241;48.786;9.250;2022-09-20T02:16:45;11.10;99.90
16267;DHT22;8241;48.786;9.250;2022-09-20T02:22:37;11.00;99.90
16267;DHT22;8241;48.786;9.250;2022-09-20T02:25:13;11.10;99.90
16267;DHT22;8241;48.786;9.250;2022-09-20T02:27:54;11.10;99.90
16267;DHT22;8241;48.786;9.250;2022-09-20T02:30:37;11.20;99.90
16267;DHT22;8241;48.786;9.250;2022-09-20T02:33:34;11.30;99.90
16267;DHT22;8241;48.786;9.250;2022-09-20T02:36:18;11.20;99.90
16267;DHT22;8241;48.786;9.250;2022-09-20T02:38:56;11.10;99.90
16267;DHT22;8241;48.786;9.250;2022-09-20T02:41:40;11.10;99.90
16267;DHT22;8241;48.786;9.250;2022-09-20T02:44:17;11.30;99.90
16267;DHT22;8241;48.786;9.250;2022-09-20T02:46:59;11.20;99.90
16267;DHT22;8241;48.786;9.250;2022-09-20T02:49:35;11.20;99.90
16267;DHT22;8241;48.786;9.250;2022-09-20T02:52:22;11.20;99.90
16267;DHT22;8241;48.786;9.250;2022-09-20T02:54:58;11.20;99.90
16267;DHT22;8241;48.786;9.250;2022-09-20T02:57:35;11.10;99.90
16267;DHT22;8241;48.786;9.250;2022-09-20T03:00:13;11.10;99.90
16267;DHT22;8241;48.786;9.250;2022-09-20T03:02:49;11.10;99.90
16267;DHT22;8241;48.786;9.250;2022-09-20T03:05:34;11.10;99.90
16267;DHT22;8241;48.786;9.250;2022-09-20T03:08:13;11.20;99.90
16267;DHT22;8241;48.786;9.250;2022-09-20T03:10:50;11.40;99.90
16267;DHT22;8241;48.786;9.250;2022-09-20T03:13:28;11.20;99.90
16267;DHT22;8241;48.786;9.250;2022-09-20T03:20:05;11.00;99.90
16267;DHT22;8241;48.786;9.250;2022-09-20T03:22:47;10.90;99.90
16267;DHT22;8241;48.786;9.250;2022-09-20T03:25:45;10.90;99.90
16267;DHT22;8241;48.786;9.250;2022-09-20T03:28:33;10.90;99.90
16267;DHT22;8241;48.786;9.250;2022-09-20T03:31:15;11.30;99.90
16267;DHT22;8241;48.786;9.250;2022-09-20T03:33:52;11.30;99.90
16267;DHT22;8241;48.786;9.250;2022-09-20T03:36:33;11.20;99.90
16267;DHT22;8241;48.786;9.250;2022-09-20T03:39:32;11.10;99.90
16267;DHT22;8241;48.786;9.250;2022-09-20T03:42:16;11.00;99.90
16267;DHT22;8241;48.786;9.250;2022-09-20T03:48:00;11.00;99.90
16267;DHT22;8241;48.786;9.250;2022-09-20T03:50:44;10.90;99.90
16267;DHT22;8241;48.786;9.250;2022-09-20T03:56:58;11.00;99.90
16267;DHT22;8241;48.786;9.250;2022-09-20T04:06:16;10.90;99.90
16267;DHT22;8241;48.786;9.250;2022-09-20T04:12:03;11.40;99.90
16267;DHT22;8241;48.786;9.250;2022-09-20T04:14:36;11.40;99.90
16267;DHT22;8241;48.786;9.250;2022-09-20T04:17:24;11.20;99.90
16267;DHT22;8241;48.786;9.250;2022-09-20T04:20:16;11.40;99.90
16267;DHT22;8241;48.786;9.250;2022-09-20T04:22:49;11.30;99.90
16267;DHT22;8241;48.786;9.250;2022-09-20T04:28:40;11.30;99.90
16267;DHT22;8241;48.786;9.250;2022-09-20T04:31:17;11.20;99.90
16267;DHT22;8241;48.786;9.250;2022-09-20T04:34:17;11.20;99.90
16267;DHT22;8241;48.786;9.250;2022-09-20T04:36:57;11.10;99.90
16267;DHT22;8241;48.786;9.250;2022-09-20T04:39:41;11.10;99.90
16267;DHT22;8241;48.786;9.250;2022-09-20T04:42:44;11.10;99.90
16267;DHT22;8241;48.786;9.250;2022-09-20T05:14:49;11.20;99.90
16267;DHT22;8241;48.786;9.250;2022-09-20T05:17:37;11.20;99.90
16267;DHT22;8241;48.786;9.250;2022-09-20T05:23:43;11.20;99.90
16267;DHT22;8241;48.786;9.250;2022-09-20T05:26:25;11.30;99.90
16267;DHT22;8241;48.786;9.250;2022-09-20T05:28:59;11.30;99.90
16267;DHT22;8241;48.786;9.250;2022-09-20T05:31:36;11.20;99.90
16267;DHT22;8241;48.786;9.250;2022-09-20T05:34:16;11.20;99.90
16267;DHT22;8241;48.786;9.250;2022-09-20T05:36:52;11.00;99.90
16267;DHT22;8241;48.786;9.250;2022-09-20T05:42:17;11.10;99.90
16267;DHT22;8241;48.786;9.250;2022-09-20T05:45:03;11.10;99.90
16267;DHT22;8241;48.786;9.250;2022-09-20T05:47:50;11.10;99.90
16267;DHT22;8241;48.786;9.250;2022-09-20T05:50:45;11.30;99.90
16267;DHT22;8241;48.786;9.250;2022-09-20T05:53:45;11.50;99.90
16267;DHT22;8241;48.786;9.250;2022-09-20T05:56:53;11.30;99.90
16267;DHT22;8241;48.786;9.250;2022-09-20T05:59:33;11.30;99.90
16267;DHT22;8241;48.786;9.250;2022-09-20T06:02:37;11.30;99.90
16267;DHT22;8241;48.786;9.250;2022-09-20T06:11:50;11.30;99.90
16267;DHT22;8241;48.786;9.250;2022-09-20T06:14:33;11.40;99.90
16267;DHT22;8241;48.786;9.250;2022-09-20T06:17:12;11.50;99.90
16267;DHT22;8241;48.786;9.250;2022-09-20T06:19:44;11.50;99.90
16267;DHT22;8241;48.786;9.250;2022-09-20T06:22:18;11.60;99.90
16267;DHT22;8241;48.786;9.250;2022-09-20T06:25:03;11.60;99.90
16267;DHT22;8241;48.786;9.250;2022-09-20T06:27:51;11.70;99.90
16267;DHT22;8241;48.786;9.250;2022-09-20T06:30:30;11.80;99.90
16267;DHT22;8241;48.786;9.250;2022-09-20T06:33:13;11.80;99.90
16267;DHT22;8241;48.786;9.250;2022-09-20T06:35:58;11.90;99.90
16267;DHT22;8241;48.786;9.250;2022-09-20T06:39:13;11.90;99.90
16267;DHT22;8241;48.786;9.250;2022-09-20T06:41:59;11.90;99.90
16267;DHT22;8241;48.786;9.250;2022-09-20T06:44:34;12.10;99.90
16267;DHT22;8241;48.786;9.250;2022-09-20T06:50:23;12.20;99.90
16267;DHT22;8241;48.786;9.250;2022-09-20T06:52:51;12.30;99.90
16267;DHT22;8241;48.786;9.250;2022-09-20T06:55:29;12.70;99.90
16267;DHT22;8241;48.786;9.250;2022-09-20T06:58:03;12.40;99.90
16267;DHT22;8241;48.786;9.250;2022-09-20T07:00:50;12.40;99.90
16267;DHT22;8241;48.786;9.250;2022-09-20T07:03:24;12.40;99.90
16267;DHT22;8241;48.786;9.250;2022-09-20T07:05:54;12.40;99.90
16267;DHT22;8241;48.786;9.250;2022-09-20T07:08:27;12.50;99.90
16267;DHT22;8241;48.786;9.250;2022-09-20T07:14:00;12.70;99.90
16267;DHT22;8241;48.786;9.250;2022-09-20T07:16:38;12.60;99.90
16267;DHT22;8241;48.786;9.250;2022-09-20T07:19:15;12.50;99.90
16267;DHT22;8241;48.786;9.250;2022-09-20T07:22:14;12.70;99.90
16267;DHT22;8241;48.786;9.250;2022-09-20T07:24:45;12.80;99.90
16267;DHT22;8241;48.786;9.250;2022-09-20T07:27:14;12.90;99.90
16267;DHT22;8241;48.786;9.250;2022-09-20T07:29:48;13.00;99.90
16267;DHT22;8241;48.786;9.250;2022-09-20T07:32:35;13.00;99.90
16267;DHT22;8241;48.786;9.250;2022-09-20T07:39:06;13.30;99.90
16267;DHT22;8241;48.786;9.250;2022-09-20T07:41:34;13.40;99.90
16267;DHT22;8241;48.786;9.250;2022-09-20T07:44:08;13.70;99.90
16267;DHT22;8241;48.786;9.250;2022-09-20T07:46:58;13.90;99.90
16267;DHT22;8241;48.786;9.250;2022-09-20T07:49:34;14.30;99.90
16267;DHT22;8241;48.786;9.250;2022-09-20T07:52:09;14.40;99.90
16267;DHT22;8241;48.786;9.250;2022-09-20T07:54:47;14.50;99.90
16267;DHT22;8241;48.786;9.250;2022-09-20T07:57:24;14.40;99.90
16267;DHT22;8241;48.786;9.250;2022-09-20T07:59:58;14.40;99.90
16267;DHT22;8241;48.786;9.250;2022-09-20T08:02:37;14.50;99.90
16267;DHT22;8241;48.786;9.250;2022-09-20T08:05:15;14.50;99.90
16267;DHT22;8241;48.786;9.250;2022-09-20T08:07:52;14.50;99.90
16267;DHT22;8241;48.786;9.250;2022-09-20T08:10:29;14.60;99.90
16267;DHT22;8241;48.786;9.250;2022-09-20T08:13:00;14.80;99.90
16267;DHT22;8241;48.786;9.250;2022-09-20T08:15:41;14.70;99.70
16267;DHT22;8241;48.786;9.250;2022-09-20T08:18:14;14.80;99.90
16267;DHT22;8241;48.786;9.250;2022-09-20T08:20:46;14.90;99.60
16267;DHT22;8241;48.786;9.250;2022-09-20T08:23:14;15.00;98.60
16267;DHT22;8241;48.786;9.250;2022-09-20T08:25:55;15.10;98.80
16267;DHT22;8241;48.786;9.250;2022-09-20T08:28:24;15.10;98.40
16267;DHT22;8241;48.786;9.250;2022-09-20T08:31:19;15.10;97.80
16267;DHT22;8241;48.786;9.250;2022-09-20T08:34:10;15.00;98.20
16267;DHT22;8241;48.786;9.250;2022-09-20T08:36:54;15.10;97.60
16267;DHT22;8241;48.786;9.250;2022-09-20T08:43:09;14.80;97.50
16267;DHT22;8241;48.786;9.250;2022-09-20T08:49:25;14.40;98.10
16267;DHT22;8241;48.786;9.250;2022-09-20T08:51:58;14.30;97.40
16267;DHT22;8241;48.786;9.250;2022-09-20T08:54:36;14.30;97.50
16267;DHT22;8241;48.786;9.250;2022-09-20T08:57:09;14.40;97.70
16267;DHT22;8241;48.786;9.250;2022-09-20T09:03:06;14.60;96.60
16267;DHT22;8241;48.786;9.250;2022-09-20T09:05:36;14.90;96.70
16267;DHT22;8241;48.786;9.250;2022-09-20T09:08:39;15.10;96.30
16267;DHT22;8241;48.786;9.250;2022-09-20T09:11:13;15.40;95.70
16267;DHT22;8241;48.786;9.250;2022-09-20T09:13:51;15.20;96.10
16267;DHT22;8241;48.786;9.250;2022-09-20T09:16:20;15.10;96.00
16267;DHT22;8241;48.786;9.250;2022-09-20T09:18:48;14.90;96.50
16267;DHT22;8241;48.786;9.250;2022-09-20T09:21:27;14.80;96.80
16267;DHT22;8241;48.786;9.250;2022-09-20T09:24:06;14.70;96.80
16267;DHT22;8241;48.786;9.250;2022-09-20T09:26:36;14.60;96.30
16267;DHT22;8241;48.786;9.250;2022-09-20T09:29:32;14.60;96.10
16267;DHT22;8241;48.786;9.250;2022-09-20T09:32:18;14.50;96.00
16267;DHT22;8241;48.786;9.250;2022-09-20T09:34:46;14.40;95.10
16267;DHT22;8241;48.786;9.250;2022-09-20T09:37:23;14.30;95.60
16267;DHT22;8241;48.786;9.250;2022-09-20T09:40:14;14.20;96.10
16267;DHT22;8241;48.786;9.250;2022-09-20T09:42:49;14.20;95.80
16267;DHT22;8241;48.786;9.250;2022-09-20T09:45:25;14.20;96.10
16267;DHT22;8241;48.786;9.250;2022-09-20T09:47:53;14.40;96.10
16267;DHT22;8241;48.786;9.250;2022-09-20T09:50:22;14.60;95.80
16267;DHT22;8241;48.786;9.250;2022-09-20T09:56:05;15.50;94.40
16267;DHT22;8241;48.786;9.250;2022-09-20T09:58:55;15.80;93.90
16267;DHT22;8241;48.786;9.250;2022-09-20T10:01:52;15.80;94.10
16267;DHT22;8241;48.786;9.250;2022-09-20T10:04:26;15.90;93.30
16267;DHT22;8241;48.786;9.250;2022-09-20T10:07:15;15.70;93.10
16267;DHT22;8241;48.786;9.250;2022-09-20T10:10:01;15.70;92.60
16267;DHT22;8241;48.786;9.250;2022-09-20T10:12:50;15.70;92.70
16267;DHT22;8241;48.786;9.250;2022-09-20T10:15:28;15.70;93.00
16267;DHT22;8241;48.786;9.250;2022-09-20T10:18:30;16.10;92.60
16267;DHT22;8241;48.786;9.250;2022-09-20T10:21:16;16.40;92.50
16267;DHT22;8241;48.786;9.250;2022-09-20T10:23:52;16.90;91.30
16267;DHT22;8241;48.786;9.250;2022-09-20T10:26:52;17.20;91.40
16267;DHT22;8241;48.786;9.250;2022-09-20T10:29:34;19.00;87.50
16267;DHT22;8241;48.786;9.250;2022-09-20T10:32:17;21.40;81.60
16267;DHT22;8241;48.786;9.250;2022-09-20T10:41:37;19.30;81.70
16267;DHT22;8241;48.786;9.250;2022-09-20T10:44:41;18.20;85.20
16267;DHT22;8241;48.786;9.250;2022-09-20T10:47:14;17.40;89.20
16267;DHT22;8241;48.786;9.250;2022-09-20T10:49:52;16.90;90.00
16267;DHT22;8241;48.786;9.250;2022-09-20T10:52:47;16.60;89.90
16267;DHT22;8241;48.786;9.250;2022-09-20T10:55:28;16.50;90.50
16267;DHT22;8241;48.786;9.250;2022-09-20T11:01:04;17.10;88.90
16267;DHT22;8241;48.786;9.250;2022-09-20T11:04:01;18.00;89.00
16267;DHT22;8241;48.786;9.250;2022-09-20T11:06:41;20.90;82.40
16267;DHT22;8241;48.786;9.250;2022-09-20T11:09:16;23.80;74.00
16267;DHT22;8241;48.786;9.250;2022-09-20T11:11:49;25.80;69.30
16267;DHT22;8241;48.786;9.250;2022-09-20T11:14:19;25.60;68.00
16267;DHT22;8241;48.786;9.250;2022-09-20T11:17:11;26.30;65.30
16267;DHT22;8241;48.786;9.250;2022-09-20T11:19:46;24.40;67.50
16267;DHT22;8241;48.786;9.250;2022-09-20T11:22:19;22.60;70.60
16267;DHT22;8241;48.786;9.250;2022-09-20T11:24:48;21.40;74.60
16267;DHT22;8241;48.786;9.250;2022-09-20T11:27:36;20.60;76.40
16267;DHT22;8241;48.786;9.250;2022-09-20T11:30:04;19.80;79.10
16267;DHT22;8241;48.786;9.250;2022-09-20T11:32:46;19.30;80.00
16267;DHT22;8241;48.786;9.250;2022-09-20T11:35:27;19.00;80.40
16267;DHT22;8241;48.786;9.250;2022-09-20T11:37:56;18.80;82.30
16267;DHT22;8241;48.786;9.250;2022-09-20T11:40:27;20.50;80.90
16267;DHT22;8241;48.786;9.250;2022-09-20T11:46:22;23.70;71.70
16267;DHT22;8241;48.786;9.250;2022-09-20T11:49:26;23.70;70.70
16267;DHT22;8241;48.786;9.250;2022-09-20T11:52:15;23.70;69.80
16267;DHT22;8241;48.786;9.250;2022-09-20T12:00:58;23.80;67.00
16267;DHT22;8241;48.786;9.250;2022-09-20T12:03:44;24.30;66.90
16267;DHT22;8241;48.786;9.250;2022-09-20T12:06:25;24.30;68.60
16267;DHT22;8241;48.786;9.250;2022-09-20T12:08:53;24.90;66.30
16267;DHT22;8241;48.786;9.250;2022-09-20T12:11:29;25.90;63.60
16267;DHT22;8241;48.786;9.250;2022-09-20T12:13:59;25.90;64.00
16267;DHT22;8241;48.786;9.250;2022-09-20T12:16:37;27.10;63.10
16267;DHT22;8241;48.786;9.250;2022-09-20T12:19:05;28.10;59.90
16267;DHT22;8241;48.786;9.250;2022-09-20T12:28:11;28.80;58.00
16267;DHT22;8241;48.786;9.250;2022-09-20T12:30:39;28.80;57.90
16267;DHT22;8241;48.786;9.250;2022-09-20T12:33:18;28.40;56.90
16267;DHT22;8241;48.786;9.250;2022-09-20T12:38:59;27.60;58.70
16267;DHT22;8241;48.786;9.250;2022-09-20T12:41:31;27.50;58.20
16267;DHT22;8241;48.786;9.250;2022-09-20T12:47:20;27.00;59.40
16267;DHT22;8241;48.786;9.250;2022-09-20T12:50:12;26.90;59.30
16267;DHT22;8241;48.786;9.250;2022-09-20T12:52:59;26.50;60.20
16267;DHT22;8241;48.786;9.250;2022-09-20T12:55:42;26.60;59.10
16267;DHT22;8241;48.786;9.250;2022-09-20T12:58:36;27.00;58.90
16267;DHT22;8241;48.786;9.250;2022-09-20T13:01:30;26.70;59.40
16267;DHT22;8241;48.786;9.250;2022-09-20T13:13:32;25.00;62.10
16267;DHT22;8241;48.786;9.250;2022-09-20T13:16:05;25.90;60.30
16267;DHT22;8241;48.786;9.250;2022-09-20T13:18:46;26.10;59.80
16267;DHT22;8241;48.786;9.250;2022-09-20T13:21:14;26.70;59.20
16267;DHT22;8241;48.786;9.250;2022-09-20T13:23:48;28.00;57.90
16267;DHT22;8241;48.786;9.250;2022-09-20T13:26:18;27.50;58.20
16267;DHT22;8241;48.786;9.250;2022-09-20T13:28:50;27.60;57.80
16267;DHT22;8241;48.786;9.250;2022-09-20T13:31:36;27.30;57.10
16267;DHT22;8241;48.786;9.250;2022-09-20T13:34:17;26.30;59.20
16267;DHT22;8241;48.786;9.250;2022-09-20T13:40:16;24.10;63.40
16267;DHT22;8241;48.786;9.250;2022-09-20T13:42:44;23.60;63.20
16267;DHT22;8241;48.786;9.250;2022-09-20T13:45:14;23.20;65.80
16267;DHT22;8241;48.786;9.250;2022-09-20T13:47:47;22.80;67.10
16267;DHT22;8241;48.786;9.250;2022-09-20T13:50:27;22.10;71.40
16267;DHT22;8241;48.786;9.250;2022-09-20T13:52:58;21.10;74.60
16267;DHT22;8241;48.786;9.250;2022-09-20T13:55:27;20.40;76.40
16267;DHT22;8241;48.786;9.250;2022-09-20T13:57:58;19.90;78.10
16267;DHT22;8241;48.786;9.250;2022-09-20T14:00:29;19.40;78.70
16267;DHT22;8241;48.786;9.250;2022-09-20T14:03:21;18.90;79.80
16267;DHT22;8241;48.786;9.250;2022-09-20T14:05:50;18.60;81.30
16267;DHT22;8241;48.786;9.250;2022-09-20T14:08:22;18.50;82.50
16267;DHT22;8241;48.786;9.250;2022-09-20T14:11:03;18.40;81.60
16267;DHT22;8241;48.786;9.250;2022-09-20T14:13:35;18.20;82.50
16267;DHT22;8241;48.786;9.250;2022-09-20T14:16:06;18.20;83.20
16267;DHT22;8241;48.786;9.250;2022-09-20T14:18:35;18.00;84.60
16267;DHT22;8241;48.786;9.250;2022-09-20T14:21:05;17.80;85.00
16267;DHT22;8241;48.786;9.250;2022-09-20T14:23:48;17.60;85.20
16267;DHT22;8241;48.786;9.250;2022-09-20T14:26:27;17.40;85.70
16267;DHT22;8241;48.786;9.250;2022-09-20T14:28:55;17.30;85.70
16267;DHT22;8241;48.786;9.250;2022-09-20T14:31:27;17.20;85.80
16267;DHT22;8241;48.786;9.250;2022-09-20T14:33:57;17.20;85.60
16267;DHT22;8241;48.786;9.250;2022-09-20T14:36:31;17.10;86.50
16267;DHT22;8241;48.786;9.250;2022-09-20T14:39:02;16.90;84.90
16267;DHT22;8241;48.786;9.250;2022-09-20T14:41:33;16.80;86.20
16267;DHT22;8241;48.786;9.250;2022-09-20T14:44:01;16.70;85.30
16267;DHT22;8241;48.786;9.250;2022-09-20T14:50:17;16.60;85.10
16267;DHT22;8241;48.786;9.250;2022-09-20T14:53:03;16.60;86.10
16267;DHT22;8241;48.786;9.250;2022-09-20T14:55:31;16.60;86.00
16267;DHT22;8241;48.786;9.250;2022-09-20T14:58:01;16.50;85.80
16267;DHT22;8241;48.786;9.250;2022-09-20T15:00:28;16.50;86.30
16267;DHT22;8241;48.786;9.250;2022-09-20T15:03:12;16.60;86.80
16267;DHT22;8241;48.786;9.250;2022-09-20T15:05:45;16.60;87.10
16267;DHT22;8241;48.786;9.250;2022-09-20T15:08:13;16.60;87.20
16267;DHT22;8241;48.786;9.250;2022-09-20T15:10:53;16.70;87.80
16267;DHT22;8241;48.786;9.250;2022-09-20T15:13:20;16.70;87.10
16267;DHT22;8241;48.786;9.250;2022-09-20T15:15:50;16.80;86.60
16267;DHT22;8241;48.786;9.250;2022-09-20T15:18:20;16.80;86.50
16267;DHT22;8241;48.786;9.250;2022-09-20T15:20:49;16.90;85.40
16267;DHT22;8241;48.786;9.250;2022-09-20T15:23:17;16.90;85.90
16267;DHT22;8241;48.786;9.250;2022-09-20T15:33:21;17.10;84.70
16267;DHT22;8241;48.786;9.250;2022-09-20T15:35:49;17.20;84.80
16267;DHT22;8241;48.786;9.250;2022-09-20T15:38:17;17.20;84.50
16267;DHT22;8241;48.786;9.250;2022-09-20T15:40:45;17.30;83.40
16267;DHT22;8241;48.786;9.250;2022-09-20T15:43:14;17.40;82.90
16267;DHT22;8241;48.786;9.250;2022-09-20T15:45:47;17.40;82.50
16267;DHT22;8241;48.786;9.250;2022-09-20T15:51:37;17.10;82.70
16267;DHT22;8241;48.786;9.250;2022-09-20T15:54:11;17.00;83.80
16267;DHT22;8241;48.786;9.250;2022-09-20T15:56:48;16.90;84.90
16267;DHT22;8241;48.786;9.250;2022-09-20T15:59:17;17.10;84.90
16267;DHT22;8241;48.786;9.250;2022-09-20T16:01:48;17.10;85.10
16267;DHT22;8241;48.786;9.250;2022-09-20T16:04:29;17.10;84.20
16267;DHT22;8241;48.786;9.250;2022-09-20T16:06:59;17.00;83.20
16267;DHT22;8241;48.786;9.250;2022-09-20T16:09:29;16.90;84.80
16267;DHT22;8241;48.786;9.250;2022-09-20T16:11:55;16.90;84.30
16267;DHT22;8241;48.786;9.250;2022-09-20T16:14:24;16.80;85.00
16267;DHT22;8241;48.786;9.250;2022-09-20T16:17:08;16.70;84.50
16267;DHT22;8241;48.786;9.250;2022-09-20T16:19:46;16.50;84.60
16267;DHT22;8241;48.786;9.250;2022-09-20T16:22:14;16.40;84.80
16267;DHT22;8241;48.786;9.250;2022-09-20T16:24:43;16.30;84.80
16267;DHT22;8241;48.786;9.250;2022-09-20T16:27:14;16.20;85.30
16267;DHT22;8241;48.786;9.250;2022-09-20T16:29:42;16.10;86.30
16267;DHT22;8241;48.786;9.250;2022-09-20T16:32:26;16.10;86.40
16267;DHT22;8241;48.786;9.250;2022-09-20T16:34:53;16.00;85.70
16267;DHT22;8241;48.786;9.250;2022-09-20T16:41:10;15.80;88.60
16267;DHT22;8241;48.786;9.250;2022-09-20T16:43:56;15.70;88.90
16267;DHT22;8241;48.786;9.250;2022-09-20T16:46:23;15.70;89.40
16267;DHT22;8241;48.786;9.250;2022-09-20T16:48:52;15.60;89.40
16267;DHT22;8241;48.786;9.250;2022-09-20T16:51:21;15.70;88.90
16267;DHT22;8241;48.786;9.250;2022-09-20T16:53:49;15.60;89.70
16267;DHT22;8241;48.786;9.250;2022-09-20T16:56:29;15.50;90.10
16267;DHT22;8241;48.786;9.250;2022-09-20T16:59:21;15.50;89.80
16267;DHT22;8241;48.786;9.250;2022-09-20T17:02:03;15.50;90.10
16267;DHT22;8241;48.786;9.250;2022-09-20T17:04:48;15.40;90.40
16267;DHT22;8241;48.786;9.250;2022-09-20T17:07:37;15.40;90.80
16267;DHT22;8241;48.786;9.250;2022-09-20T17:10:14;15.20;90.80
16267;DHT22;8241;48.786;9.250;2022-09-20T17:12:51;15.20;91.70
16267;DHT22;8241;48.786;9.250;2022-09-20T17:15:26;15.10;91.50
16267;DHT22;8241;48.786;9.250;2022-09-20T17:18:04;15.10;91.60
16267;DHT22;8241;48.786;9.250;2022-09-20T17:20:33;15.00;91.60
16267;DHT22;8241;48.786;9.250;2022-09-20T17:23:10;15.00;91.90
16267;DHT22;8241;48.786;9.250;2022-09-20T17:25:38;14.90;92.10
16267;DHT22;8241;48.786;9.250;2022-09-20T17:28:11;14.90;92.40
16267;DHT22;8241;48.786;9.250;2022-09-20T17:30:40;14.80;92.40
16267;DHT22;8241;48.786;9.250;2022-09-20T17:33:18;14.80;92.60
16267;DHT22;8241;48.786;9.250;2022-09-20T17:35:49;14.70;92.80
16267;DHT22;8241;48.786;9.250;2022-09-20T17:38:29;14.70;92.90
16267;DHT22;8241;48.786;9.250;2022-09-20T17:40:59;14.60;93.10
16267;DHT22;8241;48.786;9.250;2022-09-20T17:43:28;14.60;93.10
16267;DHT22;8241;48.786;9.250;2022-09-20T17:46:19;14.60;93.30
16267;DHT22;8241;48.786;9.250;2022-09-20T17:48:50;14.50;93.50
16267;DHT22;8241;48.786;9.250;2022-09-20T17:51:20;14.40;93.60
16267;DHT22;8241;48.786;9.250;2022-09-20T17:53:47;14.30;93.70
16267;DHT22;8241;48.786;9.250;2022-09-20T17:56:18;14.30;93.90
16267;DHT22;8241;48.786;9.250;2022-09-20T17:58:54;14.20;94.00
16267;DHT22;8241;48.786;9.250;2022-09-20T18:01:22;14.20;94.10
16267;DHT22;8241;48.786;9.250;2022-09-20T18:04:08;14.20;94.40
16267;DHT22;8241;48.786;9.250;2022-09-20T18:07:03;14.10;94.80
16267;DHT22;8241;48.786;9.250;2022-09-20T18:09:41;14.10;94.60
16267;DHT22;8241;48.786;9.250;2022-09-20T18:12:08;14.00;94.80
16267;DHT22;8241;48.786;9.250;2022-09-20T18:14:56;14.00;94.90
16267;DHT22;8241;48.786;9.250;2022-09-20T18:17:26;14.00;95.10
16267;DHT22;8241;48.786;9.250;2022-09-20T18:20:06;13.90;95.20
16267;DHT22;8241;48.786;9.250;2022-09-20T18:22:59;13.90;95.50
16267;DHT22;8241;48.786;9.250;2022-09-20T18:25:30;13.80;95.70
16267;DHT22;8241;48.786;9.250;2022-09-20T18:28:22;13.70;95.90
16267;DHT22;8241;48.786;9.250;2022-09-20T18:30:59;13.70;96.00
16267;DHT22;8241;48.786;9.250;2022-09-20T18:33:30;13.60;96.30
16267;DHT22;8241;48.786;9.250;2022-09-20T18:36:03;13.60;96.30
16267;DHT22;8241;48.786;9.250;2022-09-20T18:38:37;13.60;96.40
16267;DHT22;8241;48.786;9.250;2022-09-20T18:41:11;13.60;96.40
16267;DHT22;8241;48.786;9.250;2022-09-20T18:43:41;13.60;96.40
16267;DHT22;8241;48.786;9.250;2022-09-20T18:46:17;13.60;96.30
16267;DHT22;8241;48.786;9.250;2022-09-20T18:49:07;13.50;96.50
16267;DHT22;8241;48.786;9.250;2022-09-20T18:51:40;13.50;96.90
16267;DHT22;8241;48.786;9.250;2022-09-20T18:54:16;13.50;96.90
16267;DHT22;8241;48.786;9.250;2022-09-20T18:57:09;13.50;96.90
16267;DHT22;8241;48.786;9.250;2022-09-20T18:59:41;13.40;96.80
16267;DHT22;8241;48.786;9.250;2022-09-20T19:02:33;13.40;96.90
16267;DHT22;8241;48.786;9.250;2022-09-20T19:05:28;13.30;97.00
16267;DHT22;8241;48.786;9.250;2022-09-20T19:11:59;13.20;97.40
16267;DHT22;8241;48.786;9.250;2022-09-20T19:14:33;13.10;97.80
16267;DHT22;8241;48.786;9.250;2022-09-20T19:17:03;13.10;98.10
16267;DHT22;8241;48.786;9.250;2022-09-20T19:19:48;13.20;98.10
16267;DHT22;8241;48.786;9.250;2022-09-20T19:22:45;13.20;98.00
16267;DHT22;8241;48.786;9.250;2022-09-20T19:25:31;13.00;98.50
16267;DHT22;8241;48.786;9.250;2022-09-20T19:28:12;12.90;98.80
16267;DHT22;8241;48.786;9.250;2022-09-20T19:30:45;12.90;99.10
16267;DHT22;8241;48.786;9.250;2022-09-20T19:33:23;12.80;99.20
16267;DHT22;8241;48.786;9.250;2022-09-20T19:35:59;12.80;99.10
16267;DHT22;8241;48.786;9.250;2022-09-20T19:38:36;12.80;99.20
16267;DHT22;8241;48.786;9.250;2022-09-20T19:41:20;12.80;99.30
16267;DHT22;8241;48.786;9.250;2022-09-20T19:44:08;12.70;99.00